Time;durP1;ratioP1;P1;durP2;ratioP2;P2;SDS_P1;SDS_P2;PMS_P1;PMS_P2;Temp;Humidity;BMP_temperature;BMP_pressure;BME280_temperature;BME280_humidity;BME280_pressure;Samples;Min_cycle;Max_cycle;Signal;HPM_P1;HPM_P2
2021/09/26 00:00:04;;;;;;;3.60;1.77;;;14.80;99.90;;;;;;5068969;28;20230;-77
2021/09/26 00:02:39;;;;;;;2.80;1.53;;;14.80;99.90;;;;;;5069868;28;20285;-77
2021/09/26 00:05:07;;;;;;;2.37;1.93;;;14.80;99.90;;;;;;5066986;28;20224;-77
2021/09/26 00:07:34;;;;;;;2.70;1.57;;;14.70;99.90;;;;;;5069281;28;20672;-77
2021/09/26 00:10:01;;;;;;;2.73;1.87;;;14.70;99.90;;;;;;5069160;28;21098;-77
2021/09/26 00:12:28;;;;;;;2.73;1.70;;;14.70;99.90;;;;;;5087542;28;20709;-77
2021/09/26 00:14:57;;;;;;;4.23;2.10;;;14.70;99.90;;;;;;5069715;28;20196;-77
2021/09/26 00:17:25;;;;;;;2.07;1.60;;;14.70;99.90;;;;;;5070988;28;20212;-77
2021/09/26 00:19:52;;;;;;;1.80;1.60;;;14.70;99.90;;;;;;5070523;28;20199;-77
2021/09/26 00:22:19;;;;;;;3.20;1.80;;;14.60;99.90;;;;;;5073466;28;20743;-77
2021/09/26 00:24:48;;;;;;;2.20;1.70;;;14.60;99.90;;;;;;5066562;28;20702;-77
2021/09/26 00:27:15;;;;;;;3.23;1.70;;;14.60;99.90;;;;;;5059776;28;20219;-77
2021/09/26 00:29:42;;;;;;;2.30;1.70;;;14.60;99.90;;;;;;5068477;28;20227;-77
2021/09/26 00:32:10;;;;;;;2.17;1.80;;;14.60;99.90;;;;;;5070202;28;20224;-77
2021/09/26 00:34:37;;;;;;;2.23;1.63;;;14.60;99.90;;;;;;5071533;28;20218;-77
2021/09/26 00:37:05;;;;;;;2.20;1.40;;;14.60;99.90;;;;;;5070007;28;20205;-77
2021/09/26 00:39:32;;;;;;;2.03;1.27;;;14.60;99.90;;;;;;5068141;28;20206;-76
2021/09/26 00:41:59;;;;;;;2.33;1.60;;;14.60;99.90;;;;;;5069947;28;20209;-77
2021/09/26 00:44:27;;;;;;;1.97;1.33;;;14.60;99.90;;;;;;5068701;28;20230;-76
2021/09/26 00:46:55;;;;;;;1.60;1.40;;;14.50;99.90;;;;;;5072341;28;20205;-76
2021/09/26 00:49:23;;;;;;;1.27;1.10;;;14.50;99.90;;;;;;5070867;28;20212;-76
2021/09/26 00:51:51;;;;;;;1.93;1.50;;;14.50;99.90;;;;;;5071427;28;20287;-76
2021/09/26 00:54:18;;;;;;;2.10;1.50;;;14.50;99.90;;;;;;5069378;28;20291;-76
2021/09/26 00:56:48;;;;;;;1.77;1.67;;;14.50;99.90;;;;;;5064188;28;20261;-76
2021/09/26 00:59:16;;;;;;;2.53;1.30;;;14.50;99.90;;;;;;5080099;28;20274;-76
2021/09/26 01:01:43;;;;;;;1.37;1.27;;;14.50;99.90;;;;;;5069793;28;20209;-77
2021/09/26 01:04:10;;;;;;;1.87;1.60;;;14.50;99.90;;;;;;5069196;28;20665;-76
2021/09/26 01:06:48;;;;;;;2.57;1.30;;;14.40;99.90;;;;;;5071533;28;20203;-76
2021/09/26 01:09:26;;;;;;;1.50;1.37;;;14.40;99.90;;;;;;5079408;28;20564;-76
2021/09/26 01:12:01;;;;;;;1.93;1.43;;;14.40;99.90;;;;;;5066025;28;20446;-76
2021/09/26 01:14:38;;;;;;;3.47;2.10;;;14.40;99.90;;;;;;5070127;28;20199;-76
2021/09/26 01:17:10;;;;;;;2.60;1.90;;;14.40;99.90;;;;;;5071055;28;20649;-77
2021/09/26 01:20:08;;;;;;;2.13;1.70;;;14.40;99.90;;;;;;5077416;28;20285;-77
2021/09/26 01:22:52;;;;;;;2.67;1.77;;;14.40;99.90;;;;;;4989555;28;20671;-77
2021/09/26 01:25:46;;;;;;;1.73;1.60;;;14.30;99.90;;;;;;4988372;28;20223;-77
2021/09/26 01:28:39;;;;;;;1.87;1.63;;;14.30;99.90;;;;;;4983409;28;20445;-77
2021/09/26 01:31:10;;;;;;;1.40;1.30;;;14.30;99.90;;;;;;4927317;29;20216;-77
2021/09/26 01:33:41;;;;;;;1.10;1.10;;;14.20;99.90;;;;;;4910787;29;20722;-77
2021/09/26 01:36:17;;;;;;;2.80;1.60;;;14.20;99.90;;;;;;4918345;29;20563;-77
2021/09/26 01:38:51;;;;;;;1.47;1.30;;;14.20;99.90;;;;;;4914774;29;20664;-77
2021/09/26 01:41:28;;;;;;;2.17;1.57;;;14.20;99.90;;;;;;4913295;29;20220;-76
2021/09/26 01:43:58;;;;;;;4.63;1.93;;;14.20;99.90;;;;;;4913472;29;20239;-76
2021/09/26 01:46:35;;;;;;;2.77;1.40;;;14.10;99.90;;;;;;4914598;29;20736;-76
2021/09/26 01:49:06;;;;;;;1.57;1.47;;;14.10;99.90;;;;;;4914818;29;20215;-77
2021/09/26 01:51:36;;;;;;;1.93;1.60;;;14.10;99.90;;;;;;4912461;29;20218;-77
2021/09/26 01:54:05;;;;;;;1.20;1.10;;;14.10;99.90;;;;;;4924936;29;20215;-76
2021/09/26 01:56:34;;;;;;;1.50;1.27;;;14.10;99.90;;;;;;4926545;29;20240;-76
2021/09/26 01:59:01;;;;;;;2.90;1.70;;;14.10;99.90;;;;;;4937380;28;20214;-77
2021/09/26 02:01:31;;;;;;;1.40;1.30;;;14.10;99.90;;;;;;5021375;28;20308;-76
2021/09/26 02:03:58;;;;;;;1.90;1.17;;;14.00;99.90;;;;;;5010286;28;20206;-76
2021/09/26 02:06:26;;;;;;;4.10;1.37;;;14.00;99.90;;;;;;5001186;28;20200;-76
2021/09/26 02:08:54;;;;;;;1.53;1.20;;;14.00;99.90;;;;;;5059199;28;20211;-77
2021/09/26 02:11:21;;;;;;;2.90;1.30;;;14.00;99.90;;;;;;5057716;28;20642;-76
2021/09/26 02:13:50;;;;;;;1.07;1.07;;;14.00;99.90;;;;;;5067881;28;20298;-76
2021/09/26 02:16:19;;;;;;;1.37;1.30;;;13.90;99.90;;;;;;5079100;28;20667;-76
2021/09/26 02:18:48;;;;;;;1.20;1.10;;;13.90;99.90;;;;;;5068673;28;20735;-76
2021/09/26 02:21:17;;;;;;;1.93;1.30;;;13.90;99.90;;;;;;5058947;28;20529;-76
2021/09/26 02:23:44;;;;;;;2.37;1.40;;;13.90;99.90;;;;;;5068624;28;20477;-76
2021/09/26 02:26:12;;;;;;;1.50;1.00;;;13.90;99.90;;;;;;5066564;28;20322;-76
2021/09/26 02:28:41;;;;;;;3.93;1.60;;;13.90;99.90;;;;;;5076689;28;20756;-76
2021/09/26 02:31:08;;;;;;;2.53;1.20;;;13.90;99.90;;;;;;5080709;28;20210;-77
2021/09/26 02:33:36;;;;;;;1.73;1.10;;;13.80;99.90;;;;;;5069867;28;20206;-77
2021/09/26 02:36:07;;;;;;;1.20;0.97;;;13.80;99.90;;;;;;5074675;28;20209;-77
2021/09/26 02:38:35;;;;;;;2.00;1.30;;;13.80;99.90;;;;;;5061976;28;20199;-77
2021/09/26 02:41:11;;;;;;;1.00;1.00;;;13.80;99.90;;;;;;5060113;28;20199;-77
2021/09/26 02:43:43;;;;;;;1.77;0.93;;;13.80;99.90;;;;;;5067388;28;20233;-77
2021/09/26 02:46:15;;;;;;;0.97;0.87;;;13.80;99.90;;;;;;5068491;28;20217;-77
2021/09/26 02:48:42;;;;;;;1.47;1.13;;;13.70;99.90;;;;;;5068109;28;20355;-77
2021/09/26 02:51:12;;;;;;;0.80;0.80;;;13.80;99.90;;;;;;5068492;28;20199;-77
2021/09/26 02:53:39;;;;;;;1.20;1.10;;;13.80;99.90;;;;;;5067720;28;20214;-77
2021/09/26 02:56:07;;;;;;;2.10;1.20;;;13.80;99.90;;;;;;5067909;28;20229;-77
2021/09/26 02:58:37;;;;;;;3.30;0.90;;;13.80;99.90;;;;;;5062635;28;20210;-77
2021/09/26 03:01:04;;;;;;;1.10;1.00;;;13.70;99.90;;;;;;5066444;28;20356;-77
2021/09/26 03:03:31;;;;;;;1.20;1.10;;;13.70;99.90;;;;;;5073217;28;20199;-77
2021/09/26 03:05:59;;;;;;;1.33;1.20;;;13.70;99.90;;;;;;5067321;28;20218;-77
2021/09/26 03:08:27;;;;;;;0.90;0.90;;;13.60;99.90;;;;;;5069427;28;20218;-77
2021/09/26 03:10:56;;;;;;;1.60;1.20;;;13.60;99.90;;;;;;5067634;28;20688;-77
2021/09/26 03:13:23;;;;;;;0.83;0.83;;;13.60;99.90;;;;;;5068088;28;20193;-76
2021/09/26 03:15:50;;;;;;;2.20;1.00;;;13.60;99.90;;;;;;5063422;28;20198;-77
2021/09/26 03:18:17;;;;;;;1.87;1.20;;;13.60;99.90;;;;;;5068993;28;20204;-77
2021/09/26 03:20:44;;;;;;;1.17;1.07;;;13.60;99.90;;;;;;5067619;28;20574;-76
2021/09/26 03:23:12;;;;;;;1.00;1.00;;;13.50;99.90;;;;;;5068578;28;20548;-77
2021/09/26 03:25:40;;;;;;;1.30;1.03;;;13.50;99.90;;;;;;5063195;28;20232;-76
2021/09/26 03:28:08;;;;;;;0.80;0.80;;;13.50;99.90;;;;;;5074598;28;20615;-76
2021/09/26 03:30:35;;;;;;;1.63;1.00;;;13.50;99.90;;;;;;5065898;28;20299;-77
2021/09/26 03:33:02;;;;;;;1.00;1.00;;;13.50;99.90;;;;;;5068109;28;20622;-77
2021/09/26 03:35:29;;;;;;;1.30;1.20;;;13.50;99.90;;;;;;5068296;28;20197;-77
2021/09/26 03:37:56;;;;;;;1.37;1.03;;;13.40;99.90;;;;;;5069013;28;20551;-77
2021/09/26 03:40:23;;;;;;;1.03;1.00;;;13.40;99.90;;;;;;5065902;28;20628;-77
2021/09/26 03:42:51;;;;;;;0.80;0.80;;;13.40;99.90;;;;;;5066215;28;20204;-77
2021/09/26 03:45:19;;;;;;;0.73;0.73;;;13.40;99.90;;;;;;5065741;28;20238;-77
2021/09/26 03:47:46;;;;;;;1.30;1.20;;;13.30;99.90;;;;;;5067006;28;20256;-77
2021/09/26 03:50:13;;;;;;;0.90;0.90;;;13.30;99.90;;;;;;5076668;28;20197;-77
2021/09/26 03:52:41;;;;;;;0.97;0.87;;;13.30;99.90;;;;;;5064037;28;20693;-77
2021/09/26 03:55:12;;;;;;;2.33;1.23;;;13.30;99.90;;;;;;5062504;28;20193;-76
2021/09/26 03:57:39;;;;;;;0.87;0.87;;;13.30;99.90;;;;;;5065522;28;20260;-76
2021/09/26 04:00:10;;;;;;;1.47;1.37;;;13.30;99.90;;;;;;5066820;28;20224;-76
2021/09/26 04:02:40;;;;;;;2.63;1.30;;;13.20;99.90;;;;;;5066456;28;20205;-77
2021/09/26 04:05:09;;;;;;;1.00;1.00;;;13.20;99.90;;;;;;5062707;28;20220;-77
2021/09/26 04:07:36;;;;;;;1.30;1.20;;;13.20;99.90;;;;;;5068720;28;20549;-76
2021/09/26 04:10:04;;;;;;;1.87;1.50;;;13.20;99.90;;;;;;5066109;28;20703;-76
2021/09/26 04:12:31;;;;;;;1.37;1.27;;;13.20;99.90;;;;;;5066396;28;20209;-77
2021/09/26 04:14:58;;;;;;;1.83;1.13;;;13.10;99.90;;;;;;5065458;28;20661;-77
2021/09/26 04:17:26;;;;;;;1.40;1.30;;;13.10;99.90;;;;;;5066842;28;20203;-77
2021/09/26 04:19:53;;;;;;;0.90;0.90;;;13.10;99.90;;;;;;5069008;28;20194;-77
2021/09/26 04:22:20;;;;;;;0.97;0.97;;;13.10;99.90;;;;;;5066780;28;20626;-77
2021/09/26 04:24:47;;;;;;;1.40;1.30;;;13.10;99.90;;;;;;5073776;28;20228;-77
2021/09/26 04:27:14;;;;;;;4.03;1.30;;;13.10;99.90;;;;;;5066802;28;20314;-76
2021/09/26 04:29:41;;;;;;;1.10;1.10;;;13.10;99.90;;;;;;5065323;28;20215;-77
2021/09/26 04:32:08;;;;;;;1.10;1.10;;;13.10;99.90;;;;;;5066673;28;20194;-77
2021/09/26 04:34:37;;;;;;;1.70;1.30;;;13.10;99.90;;;;;;5065618;28;20699;-76
2021/09/26 04:37:04;;;;;;;1.50;1.00;;;13.00;99.90;;;;;;5068077;28;20289;-77
2021/09/26 04:39:31;;;;;;;1.37;1.27;;;13.10;99.90;;;;;;5080423;28;20313;-77
2021/09/26 04:41:59;;;;;;;1.60;1.00;;;13.10;99.90;;;;;;5067331;28;20736;-77
2021/09/26 04:44:26;;;;;;;1.33;1.23;;;13.10;99.90;;;;;;5066752;28;20205;-77
2021/09/26 04:46:53;;;;;;;1.60;1.30;;;13.20;99.90;;;;;;5070659;28;20581;-75
2021/09/26 04:49:20;;;;;;;1.30;1.20;;;13.20;99.90;;;;;;5071320;28;20308;-77
2021/09/26 04:51:49;;;;;;;1.23;1.17;;;13.20;99.90;;;;;;5069749;28;20305;-77
2021/09/26 04:54:16;;;;;;;1.50;1.40;;;13.20;99.90;;;;;;5068969;28;20820;-77
2021/09/26 04:56:43;;;;;;;1.40;1.30;;;13.20;99.90;;;;;;5069111;28;20234;-77
2021/09/26 04:59:10;;;;;;;1.10;1.00;;;13.30;99.90;;;;;;5069616;28;20198;-77
2021/09/26 05:01:37;;;;;;;1.63;1.13;;;13.30;99.90;;;;;;5069561;28;20203;-77
2021/09/26 05:04:04;;;;;;;1.60;1.43;;;13.30;99.90;;;;;;5065002;28;20204;-77
2021/09/26 05:06:31;;;;;;;1.40;1.30;;;13.30;99.90;;;;;;5069629;28;20230;-78
2021/09/26 05:08:59;;;;;;;1.30;1.20;;;13.40;99.90;;;;;;5071067;28;20674;-77
2021/09/26 05:11:26;;;;;;;1.33;1.27;;;13.40;99.90;;;;;;5068989;28;20639;-77
2021/09/26 05:13:53;;;;;;;1.43;1.20;;;13.50;99.90;;;;;;5068129;28;20788;-77
2021/09/26 05:16:20;;;;;;;1.27;1.17;;;13.50;99.90;;;;;;5069361;28;20241;-78
2021/09/26 05:18:47;;;;;;;1.23;1.20;;;13.60;99.90;;;;;;5070177;28;20263;-78
2021/09/26 05:21:14;;;;;;;2.43;1.10;;;13.60;99.90;;;;;;5069567;28;20218;-78
2021/09/26 05:23:41;;;;;;;1.20;1.10;;;13.70;99.90;;;;;;5067080;28;20196;-78
2021/09/26 05:26:10;;;;;;;1.43;1.33;;;13.80;99.90;;;;;;5068623;28;20218;-78
2021/09/26 05:28:37;;;;;;;1.67;1.30;;;13.80;99.90;;;;;;5070102;28;20321;-78
2021/09/26 05:31:04;;;;;;;1.00;1.00;;;13.90;99.90;;;;;;5075789;28;20580;-78
2021/09/26 05:33:33;;;;;;;1.23;1.13;;;13.90;99.90;;;;;;5070440;28;20203;-78
2021/09/26 05:36:00;;;;;;;1.50;1.40;;;14.00;99.90;;;;;;5069192;28;20206;-78
2021/09/26 05:38:27;;;;;;;1.17;1.07;;;14.00;99.90;;;;;;5071015;28;20612;-78
2021/09/26 05:40:54;;;;;;;1.30;1.20;;;14.10;99.90;;;;;;5068356;28;20204;-78
2021/09/26 05:43:22;;;;;;;1.47;1.37;;;14.10;99.90;;;;;;5080870;28;20213;-78
2021/09/26 05:45:49;;;;;;;1.20;1.10;;;14.20;99.90;;;;;;5067614;28;20712;-78
2021/09/26 05:48:16;;;;;;;1.17;1.07;;;14.30;99.90;;;;;;5070416;28;20209;-78
2021/09/26 05:50:43;;;;;;;1.23;1.13;;;14.40;99.90;;;;;;5069314;28;20238;-78
2021/09/26 05:53:10;;;;;;;1.20;1.10;;;14.40;99.90;;;;;;5068641;28;20257;-78
2021/09/26 05:55:37;;;;;;;2.30;1.37;;;14.50;99.90;;;;;;5066226;28;20270;-77
2021/09/26 05:58:04;;;;;;;1.60;1.50;;;14.60;99.90;;;;;;5068842;28;20234;-78
2021/09/26 06:00:33;;;;;;;1.40;1.30;;;14.60;99.90;;;;;;5068364;28;20201;-78
2021/09/26 06:03:00;;;;;;;1.57;1.47;;;14.70;99.90;;;;;;5068297;28;20818;-78
2021/09/26 06:05:27;;;;;;;1.50;1.40;;;14.80;99.90;;;;;;5063890;28;20391;-78
2021/09/26 06:07:54;;;;;;;1.03;1.03;;;14.90;99.90;;;;;;5068823;28;20281;-77
2021/09/26 06:10:21;;;;;;;3.73;1.90;;;15.00;99.90;;;;;;5067642;28;20212;-78
2021/09/26 06:12:48;;;;;;;1.30;1.20;;;15.10;99.90;;;;;;5074599;28;20250;-78
2021/09/26 06:15:15;;;;;;;1.40;1.30;;;15.20;99.90;;;;;;5065980;28;20252;-77
2021/09/26 06:17:43;;;;;;;1.13;1.13;;;15.30;99.90;;;;;;5064062;28;20204;-77
2021/09/26 06:20:12;;;;;;;1.50;1.40;;;15.40;99.90;;;;;;5068648;28;20292;-77
2021/09/26 06:22:39;;;;;;;1.67;1.50;;;15.60;99.90;;;;;;5069986;28;20196;-77
2021/09/26 06:25:08;;;;;;;1.90;1.40;;;15.70;99.90;;;;;;5068223;28;20276;-77
2021/09/26 06:27:35;;;;;;;1.67;1.50;;;15.80;99.90;;;;;;5069886;28;20212;-77
2021/09/26 06:30:04;;;;;;;2.40;1.87;;;15.90;99.90;;;;;;5074048;28;20196;-77
2021/09/26 06:32:31;;;;;;;1.50;1.30;;;16.10;99.90;;;;;;5067848;28;20207;-78
2021/09/26 06:35:00;;;;;;;1.20;1.20;;;16.30;99.90;;;;;;5067522;28;20205;-77
2021/09/26 06:37:28;;;;;;;1.57;1.40;;;16.70;99.90;;;;;;5072121;28;20734;-77
2021/09/26 06:39:55;;;;;;;1.40;1.20;;;17.30;99.90;;;;;;5063420;28;20197;-77
2021/09/26 06:42:23;;;;;;;2.03;1.30;;;18.00;99.90;;;;;;5067766;28;20652;-77
2021/09/26 06:44:50;;;;;;;1.30;1.20;;;18.60;99.90;;;;;;5065618;28;20621;-77
2021/09/26 06:47:17;;;;;;;2.60;2.00;;;19.00;99.90;;;;;;5069188;28;20556;-77
2021/09/26 06:49:44;;;;;;;1.60;1.50;;;19.50;99.90;;;;;;5067905;28;20212;-77
2021/09/26 06:52:13;;;;;;;2.50;1.48;;;19.70;99.90;;;;;;5069203;28;20193;-77
2021/09/26 06:54:41;;;;;;;2.10;1.40;;;19.80;99.90;;;;;;5083458;28;20684;-77
2021/09/26 06:57:08;;;;;;;1.45;1.35;;;19.70;99.90;;;;;;5067367;28;20221;-77
2021/09/26 06:59:35;;;;;;;1.30;1.20;;;19.50;99.90;;;;;;5065981;28;20201;-77
2021/09/26 07:02:03;;;;;;;2.33;1.70;;;19.40;99.90;;;;;;5068986;28;20640;-77
2021/09/26 07:04:30;;;;;;;1.40;1.30;;;19.40;99.90;;;;;;5064579;28;20227;-77
2021/09/26 07:06:57;;;;;;;1.60;1.50;;;19.40;99.90;;;;;;5067999;28;20304;-77
2021/09/26 07:09:25;;;;;;;2.60;1.40;;;19.60;99.90;;;;;;5067273;28;20649;-77
2021/09/26 07:11:52;;;;;;;1.30;1.20;;;19.70;99.90;;;;;;5067483;28;20588;-77
2021/09/26 07:14:19;;;;;;;1.65;1.48;;;20.00;99.90;;;;;;5067053;28;20952;-77
2021/09/26 07:16:47;;;;;;;1.48;1.38;;;20.40;99.90;;;;;;5065973;28;20435;-77
2021/09/26 07:19:15;;;;;;;3.95;1.40;;;21.00;99.90;;;;;;5068415;28;20205;-77
2021/09/26 07:21:42;;;;;;;1.33;1.23;;;21.90;99.90;;;;;;5068891;28;20189;-77
2021/09/26 07:24:09;;;;;;;2.15;1.60;;;22.90;99.90;;;;;;5065031;28;20700;-77
2021/09/26 07:26:38;;;;;;;1.75;1.65;;;23.50;99.90;;;;;;5065917;28;20221;-78
2021/09/26 07:29:05;;;;;;;1.77;1.67;;;23.60;98.90;;;;;;5070403;28;20205;-77
2021/09/26 07:31:32;;;;;;;1.50;1.30;;;23.60;98.10;;;;;;5071053;28;20783;-77
2021/09/26 07:33:59;;;;;;;3.35;1.65;;;23.50;97.80;;;;;;5066271;28;20197;-77
2021/09/26 07:36:26;;;;;;;2.13;1.42;;;23.70;97.60;;;;;;5066868;28;20313;-77
2021/09/26 07:38:53;;;;;;;2.25;1.40;;;24.30;97.00;;;;;;5067871;28;20204;-77
2021/09/26 07:41:20;;;;;;;4.35;1.50;;;25.00;95.80;;;;;;5066526;28;20288;-78
2021/09/26 07:43:49;;;;;;;1.50;1.40;;;25.80;94.70;;;;;;5068370;28;20285;-77
2021/09/26 07:46:16;;;;;;;1.58;1.48;;;26.60;92.80;;;;;;5066754;28;20213;-77
2021/09/26 07:48:43;;;;;;;2.33;1.27;;;27.80;91.10;;;;;;5068468;28;20213;-77
2021/09/26 07:51:10;;;;;;;1.35;1.25;;;28.80;87.50;;;;;;5066717;28;20205;-78
2021/09/26 07:53:38;;;;;;;1.48;1.15;;;29.60;82.50;;;;;;5068095;28;20224;-77
2021/09/26 07:56:06;;;;;;;2.72;2.50;;;30.30;78.50;;;;;;5066432;28;20612;-77
2021/09/26 07:58:33;;;;;;;4.25;3.85;;;30.60;75.50;;;;;;5067357;28;20192;-77
2021/09/26 08:01:02;;;;;;;7.20;4.00;;;30.50;73.80;;;;;;5068364;28;20193;-77
2021/09/26 08:03:29;;;;;;;5.32;3.33;;;30.10;71.80;;;;;;5061528;28;20715;-79
2021/09/26 08:05:56;;;;;;;3.00;2.50;;;29.80;71.40;;;;;;5061235;28;20225;-79
2021/09/26 08:08:24;;;;;;;6.65;4.55;;;29.80;71.20;;;;;;5071438;28;20192;-79
2021/09/26 08:10:51;;;;;;;3.28;2.97;;;30.00;69.40;;;;;;5071722;28;20197;-80
2021/09/26 08:13:18;;;;;;;3.13;2.90;;;30.10;67.60;;;;;;5069292;28;20196;-81
2021/09/26 08:15:45;;;;;;;3.80;2.88;;;30.10;67.20;;;;;;5063247;28;20370;-80
2021/09/26 08:18:14;;;;;;;3.60;2.95;;;30.00;65.50;;;;;;5068912;28;20200;-79
2021/09/26 08:20:41;;;;;;;6.00;2.50;;;29.90;65.20;;;;;;5063001;28;20288;-79
2021/09/26 08:23:08;;;;;;;9.68;2.50;;;29.80;64.50;;;;;;5076342;28;20215;-80
2021/09/26 08:25:35;;;;;;;2.60;2.13;;;29.70;63.60;;;;;;5061967;28;20193;-80
2021/09/26 08:28:02;;;;;;;5.25;2.13;;;29.50;62.90;;;;;;5062305;28;20209;-80
2021/09/26 08:30:29;;;;;;;3.45;2.10;;;29.40;63.20;;;;;;5067161;28;20663;-81
2021/09/26 08:32:56;;;;;;;3.03;2.72;;;29.30;62.90;;;;;;5073807;28;20766;-78
2021/09/26 08:35:24;;;;;;;3.40;2.67;;;29.30;63.00;;;;;;5076235;28;20284;-78
2021/09/26 08:37:51;;;;;;;4.93;2.28;;;29.40;62.90;;;;;;5072569;28;20268;-80
2021/09/26 08:40:18;;;;;;;6.93;3.20;;;29.40;62.60;;;;;;5063547;28;20698;-81
2021/09/26 08:42:45;;;;;;;6.30;4.50;;;29.30;61.80;;;;;;5064144;28;20197;-81
2021/09/26 08:45:15;;;;;;;4.18;3.80;;;29.30;61.80;;;;;;5059036;28;20246;-81
2021/09/26 08:47:44;;;;;;;8.75;6.00;;;29.20;61.80;;;;;;5063379;28;20225;-81
2021/09/26 08:50:14;;;;;;;6.60;4.82;;;29.10;61.80;;;;;;5062371;28;20255;-81
2021/09/26 08:52:44;;;;;;;5.45;3.85;;;28.90;60.90;;;;;;5068108;28;20304;-81
2021/09/26 08:55:13;;;;;;;6.43;3.30;;;28.50;61.10;;;;;;5062615;28;20249;-81
2021/09/26 08:57:40;;;;;;;3.40;2.60;;;28.10;61.20;;;;;;5055035;28;20225;-81
2021/09/26 09:00:11;;;;;;;2.75;2.05;;;27.80;61.70;;;;;;5059912;28;20512;-81
2021/09/26 09:02:38;;;;;;;3.33;2.22;;;27.50;62.30;;;;;;5062491;28;20588;-80
2021/09/26 09:05:06;;;;;;;1.80;1.70;;;27.30;63.00;;;;;;5061832;28;20308;-80
2021/09/26 09:07:34;;;;;;;4.70;1.77;;;27.20;63.40;;;;;;5069339;28;20217;-80
2021/09/26 09:10:03;;;;;;;4.85;2.13;;;27.10;63.60;;;;;;5068428;28;20193;-81
2021/09/26 09:12:32;;;;;;;3.20;2.90;;;27.00;63.80;;;;;;5068857;28;20679;-81
2021/09/26 09:15:01;;;;;;;3.97;3.28;;;26.90;64.10;;;;;;5062156;28;20209;-80
2021/09/26 09:17:31;;;;;;;4.45;3.63;;;27.10;63.80;;;;;;5069788;28;20195;-81
2021/09/26 09:20:22;;;;;;;4.72;3.15;;;27.40;63.00;;;;;;5068871;28;20240;-81
2021/09/26 09:22:52;;;;;;;6.20;2.50;;;28.00;62.80;;;;;;5066167;28;20198;-81
2021/09/26 09:25:39;;;;;;;2.90;2.50;;;28.60;61.10;;;;;;5073208;28;20228;-81
2021/09/26 09:28:08;;;;;;;2.45;2.13;;;29.00;60.20;;;;;;5066993;28;20208;-81
2021/09/26 09:30:37;;;;;;;2.53;1.70;;;29.50;58.80;;;;;;5067810;28;20212;-81
2021/09/26 09:33:05;;;;;;;2.90;2.00;;;30.00;57.60;;;;;;5074523;28;20255;-80
2021/09/26 09:35:41;;;;;;;2.42;1.40;;;30.60;56.10;;;;;;5068539;28;20197;-81
2021/09/26 09:38:09;;;;;;;1.00;1.00;;;31.20;55.20;;;;;;5066471;28;20202;-82
2021/09/26 09:40:38;;;;;;;1.45;1.35;;;31.90;54.40;;;;;;5074559;28;20811;-82
2021/09/26 09:43:06;;;;;;;2.78;2.42;;;32.50;53.30;;;;;;5064608;28;20451;-82
2021/09/26 09:45:35;;;;;;;5.32;4.53;;;33.20;52.30;;;;;;5064847;28;20255;-81
2021/09/26 09:48:14;;;;;;;6.97;4.60;;;33.30;50.60;;;;;;5069077;28;20216;-82
2021/09/26 09:50:57;;;;;;;5.43;4.05;;;33.20;50.30;;;;;;5058748;28;20221;-81
2021/09/26 09:53:34;;;;;;;5.05;2.60;;;33.60;49.80;;;;;;5070284;28;20231;-82
2021/09/26 09:56:09;;;;;;;1.77;1.63;;;33.90;48.00;;;;;;5022056;28;1096960;-81
2021/09/26 09:58:40;;;;;;;3.67;1.83;;;34.20;46.30;;;;;;5074377;28;20290;-82
2021/09/26 10:01:10;;;;;;;2.70;1.80;;;34.50;45.60;;;;;;5064759;28;20308;-81
2021/09/26 10:03:43;;;;;;;2.75;1.92;;;34.90;45.20;;;;;;5065186;28;20211;-80
2021/09/26 10:06:31;;;;;;;1.90;1.70;;;35.30;44.50;;;;;;5080175;28;20217;-80
2021/09/26 10:09:00;;;;;;;2.22;1.73;;;35.60;44.30;;;;;;5065368;28;20263;-79
2021/09/26 10:11:32;;;;;;;2.70;2.15;;;36.10;43.60;;;;;;5068087;28;20195;-80
2021/09/26 10:14:00;;;;;;;4.85;2.35;;;36.30;42.70;;;;;;5070791;28;20256;-80
2021/09/26 10:16:27;;;;;;;3.50;3.10;;;35.70;41.20;;;;;;5072006;28;20189;-79
2021/09/26 10:18:54;;;;;;;3.35;2.40;;;35.10;42.20;;;;;;5069102;28;20675;-80
2021/09/26 10:21:22;;;;;;;5.82;2.80;;;35.10;42.00;;;;;;5065828;28;20254;-80
2021/09/26 10:23:52;;;;;;;3.65;3.05;;;34.70;41.70;;;;;;5077720;28;20217;-80
2021/09/26 10:26:24;;;;;;;3.83;3.38;;;34.00;42.60;;;;;;5070765;28;20215;-80
2021/09/26 10:28:55;;;;;;;3.35;2.15;;;33.40;43.40;;;;;;5062008;28;20225;-80
2021/09/26 10:31:25;;;;;;;4.38;2.40;;;33.30;43.60;;;;;;5066779;28;20832;-81
2021/09/26 10:33:52;;;;;;;6.03;2.50;;;33.20;44.40;;;;;;5067525;28;20687;-79
2021/09/26 10:36:21;;;;;;;3.42;2.03;;;33.40;43.50;;;;;;5068208;28;20284;-79
2021/09/26 10:38:50;;;;;;;1.83;1.73;;;33.60;43.40;;;;;;5079884;28;20284;-78
2021/09/26 10:41:18;;;;;;;1.85;1.67;;;33.60;43.80;;;;;;5054960;28;20293;-78
2021/09/26 10:43:46;;;;;;;2.30;2.00;;;33.60;43.90;;;;;;5056852;28;20305;-77
2021/09/26 10:46:17;;;;;;;2.83;2.50;;;33.70;43.70;;;;;;5067432;28;20446;-78
2021/09/26 10:49:05;;;;;;;2.60;2.40;;;33.40;43.20;;;;;;5066552;28;20247;-78
2021/09/26 10:51:47;;;;;;;2.10;1.90;;;32.90;43.10;;;;;;5078157;28;20448;-74
2021/09/26 10:54:32;;;;;;;3.15;2.25;;;32.70;43.00;;;;;;5065183;28;20205;-73
2021/09/26 10:57:28;;;;;;;5.00;2.30;;;32.80;43.20;;;;;;5066267;28;20240;-73
2021/09/26 10:59:58;;;;;;;4.45;1.77;;;32.50;42.70;;;;;;5062715;28;20287;-73
2021/09/26 11:02:37;;;;;;;2.05;1.63;;;31.90;43.20;;;;;;5057875;28;20720;-73
2021/09/26 11:05:06;;;;;;;3.05;1.73;;;31.90;43.50;;;;;;5057371;28;20212;-73
2021/09/26 11:07:35;;;;;;;3.67;1.88;;;32.40;43.30;;;;;;5072100;28;20270;-74
2021/09/26 11:10:04;;;;;;;4.80;2.20;;;32.90;42.80;;;;;;5069286;28;20213;-73
2021/09/26 11:12:42;;;;;;;2.13;1.75;;;33.40;42.50;;;;;;5058017;28;20263;-73
2021/09/26 11:15:11;;;;;;;2.17;1.73;;;33.90;42.90;;;;;;5070203;28;20428;-74
2021/09/26 11:17:43;;;;;;;1.58;1.42;;;33.90;41.40;;;;;;5067517;28;20193;-74
2021/09/26 11:20:11;;;;;;;1.95;1.58;;;34.30;41.40;;;;;;5064751;28;20473;-74
2021/09/26 11:22:38;;;;;;;1.90;1.80;;;34.30;40.90;;;;;;5065132;28;20197;-75
2021/09/26 11:25:06;;;;;;;1.95;1.75;;;34.10;40.70;;;;;;5062463;28;20212;-74
2021/09/26 11:27:37;;;;;;;1.90;1.80;;;34.10;40.60;;;;;;5061502;28;20223;-74
2021/09/26 11:30:20;;;;;;;3.92;2.03;;;33.90;40.80;;;;;;5060931;28;20204;-74
2021/09/26 11:33:05;;;;;;;3.83;2.33;;;33.20;41.10;;;;;;5066482;28;20209;-74
2021/09/26 11:35:35;;;;;;;4.45;3.50;;;33.10;41.60;;;;;;5066240;28;20334;-73
2021/09/26 11:38:04;;;;;;;5.72;4.20;;;33.00;41.50;;;;;;5066910;28;20254;-73
2021/09/26 11:40:52;;;;;;;3.58;2.90;;;33.00;42.00;;;;;;5063928;28;20719;-74
2021/09/26 11:43:22;;;;;;;3.50;2.53;;;32.60;42.20;;;;;;5074365;28;20691;-74
2021/09/26 11:45:51;;;;;;;3.67;2.10;;;32.00;42.60;;;;;;5063061;28;20726;-73
2021/09/26 11:48:19;;;;;;;2.65;1.83;;;31.30;43.20;;;;;;5066279;28;20669;-74
2021/09/26 11:50:47;;;;;;;4.75;1.90;;;30.80;43.70;;;;;;5066810;28;20725;-73
2021/09/26 11:53:16;;;;;;;5.00;3.08;;;30.30;44.00;;;;;;5064638;28;20229;-73
2021/09/26 11:55:44;;;;;;;5.22;3.40;;;30.10;44.50;;;;;;5062801;28;20890;-73
2021/09/26 11:58:13;;;;;;;4.35;2.83;;;29.80;44.60;;;;;;5080436;28;20514;-74
2021/09/26 12:00:41;;;;;;;3.03;2.13;;;29.40;44.90;;;;;;5065404;28;20437;-74
2021/09/26 12:03:18;;;;;;;3.22;2.03;;;28.90;45.50;;;;;;5063061;28;20224;-73
2021/09/26 12:05:47;;;;;;;5.18;3.47;;;28.50;46.10;;;;;;5063144;28;20267;-73
2021/09/26 12:08:14;;;;;;;3.78;2.58;;;28.10;46.50;;;;;;5067939;28;20290;-73
2021/09/26 12:10:43;;;;;;;6.13;3.60;;;27.80;46.70;;;;;;5061954;28;20214;-74
2021/09/26 12:13:13;;;;;;;3.40;3.10;;;27.50;47.00;;;;;;5064551;28;20201;-73
2021/09/26 12:15:40;;;;;;;3.28;2.25;;;27.20;47.20;;;;;;5065319;28;20219;-74
2021/09/26 12:18:07;;;;;;;2.92;2.17;;;27.00;47.50;;;;;;5065715;28;20657;-74
2021/09/26 12:20:35;;;;;;;2.05;1.88;;;26.70;47.90;;;;;;5065843;28;20200;-74
2021/09/26 12:23:03;;;;;;;2.42;2.22;;;26.50;48.20;;;;;;5066896;28;20208;-73
2021/09/26 12:25:36;;;;;;;5.20;3.17;;;26.20;48.30;;;;;;5066134;28;20689;-74
2021/09/26 12:28:08;;;;;;;4.10;2.70;;;26.00;48.50;;;;;;5065549;28;20221;-73
2021/09/26 12:30:47;;;;;;;3.00;2.80;;;25.90;48.90;;;;;;5079109;28;20201;-74
2021/09/26 12:33:22;;;;;;;5.32;3.40;;;25.60;49.30;;;;;;5069102;28;20285;-77
2021/09/26 12:35:53;;;;;;;4.75;3.08;;;25.50;50.30;;;;;;5064613;28;20217;-78
2021/09/26 12:38:25;;;;;;;3.50;3.20;;;25.30;49.90;;;;;;5067159;28;20739;-79
2021/09/26 12:40:59;;;;;;;3.30;2.53;;;25.20;50.20;;;;;;5073845;28;20200;-79
2021/09/26 12:43:29;;;;;;;4.28;3.88;;;25.10;50.40;;;;;;5072932;28;20667;-77
2021/09/26 12:45:58;;;;;;;6.82;5.20;;;25.00;50.60;;;;;;5061825;28;20190;-77
2021/09/26 12:48:26;;;;;;;7.22;4.10;;;24.90;50.80;;;;;;5063112;28;20597;-76
2021/09/26 12:50:56;;;;;;;5.28;4.00;;;24.80;51.00;;;;;;5061482;28;20291;-77
2021/09/26 12:53:26;;;;;;;3.85;3.22;;;24.70;51.30;;;;;;5066894;28;20530;-75
2021/09/26 12:55:58;;;;;;;4.00;2.33;;;24.70;51.70;;;;;;5060891;28;20205;-76
2021/09/26 12:58:34;;;;;;;3.58;2.40;;;24.50;51.80;;;;;;5067286;28;20538;-75